Time;durP1;ratioP1;P1;durP2;ratioP2;P2;SDS_P1;SDS_P2;PMS_P1;PMS_P2;Temp;Humidity;BMP_temperature;BMP_pressure;BME280_temperature;BME280_humidity;BME280_pressure;Samples;Min_cycle;Max_cycle;Signal;HPM_P1;HPM_P2
2022/03/16 00:00:22;;;;;;;4.40;2.92;;;;;;;7.77;100.00;101245.63;5041259;28;20025;-58
2022/03/16 00:02:48;;;;;;;7.22;3.58;;;;;;;7.71;100.00;101239.16;5033399;28;20493;-59
2022/03/16 00:05:14;;;;;;;7.47;3.85;;;;;;;7.68;100.00;101236.00;5030634;28;20584;-60
2022/03/16 00:07:40;;;;;;;4.20;3.33;;;;;;;7.60;100.00;101240.22;5039251;28;20024;-60
2022/03/16 00:10:07;;;;;;;11.02;4.53;;;;;;;7.56;100.00;101244.19;5032859;28;20394;-60
2022/03/16 00:12:33;;;;;;;8.48;4.32;;;;;;;7.56;100.00;101244.19;5033716;28;20376;-60
2022/03/16 00:14:59;;;;;;;6.43;4.18;;;;;;;7.56;100.00;101244.19;5034612;28;20036;-59
2022/03/16 00:17:24;;;;;;;10.48;4.53;;;;;;;7.50;100.00;101242.13;5028977;28;20033;-63
2022/03/16 00:19:49;;;;;;;9.48;5.18;;;;;;;7.47;100.00;101244.25;5041049;28;20036;-62
2022/03/16 00:22:15;;;;;;;5.80;3.83;;;;;;;7.43;100.00;101244.56;5028687;28;20082;-61
2022/03/16 00:24:40;;;;;;;7.50;4.40;;;;;;;7.41;100.00;101241.25;5032462;28;20127;-61
2022/03/16 00:27:06;;;;;;;5.88;3.67;;;;;;;7.39;100.00;101237.09;5035671;28;20048;-60
2022/03/16 00:29:31;;;;;;;9.43;4.85;;;;;;;7.40;100.00;101242.22;5038229;28;21060;-57
2022/03/16 00:31:59;;;;;;;14.30;4.60;;;;;;;7.41;100.00;101230.69;5029722;28;20127;-62
2022/03/16 00:34:24;;;;;;;6.60;4.32;;;;;;;7.40;100.00;101229.00;5027416;28;20038;-59
2022/03/16 00:36:49;;;;;;;7.93;4.35;;;;;;;7.37;100.00;101231.97;5040221;28;20056;-62
2022/03/16 00:39:15;;;;;;;7.05;4.47;;;;;;;7.32;100.00;101231.59;5037015;28;20025;-57
2022/03/16 00:41:40;;;;;;;8.10;4.57;;;;;;;7.25;100.00;101229.69;5031516;28;20398;-59
2022/03/16 00:44:06;;;;;;;6.68;4.70;;;;;;;7.19;100.00;101218.78;5024859;28;20425;-61
2022/03/16 00:46:32;;;;;;;8.30;5.15;;;;;;;7.16;100.00;101227.00;5037345;28;20131;-59
2022/03/16 00:48:57;;;;;;;7.45;4.68;;;;;;;7.11;100.00;101223.16;5034727;28;20033;-59
2022/03/16 00:51:23;;;;;;;7.90;4.97;;;;;;;7.05;100.00;101221.94;5032841;28;20104;-59
2022/03/16 00:53:48;;;;;;;8.80;5.13;;;;;;;7.04;100.00;101220.28;5035019;28;20043;-60
2022/03/16 00:56:14;;;;;;;11.27;5.63;;;;;;;7.04;100.00;101224.72;5034696;28;20037;-62
2022/03/16 00:58:39;;;;;;;9.98;6.68;;;;;;;6.97;100.00;101220.06;5034051;28;20025;-56
2022/03/16 01:01:06;;;;;;;8.20;4.45;;;;;;;6.95;100.00;101218.56;5030322;28;20502;-61
2022/03/16 01:03:32;;;;;;;10.55;6.28;;;;;;;6.89;100.00;101219.13;5030280;28;20067;-60
2022/03/16 01:05:57;;;;;;;12.68;6.18;;;;;;;6.84;100.00;101222.22;5039057;28;20029;-57
2022/03/16 01:08:22;;;;;;;9.60;6.13;;;;;;;6.84;100.00;101218.75;5032325;28;20036;-60
2022/03/16 01:10:48;;;;;;;15.10;6.45;;;;;;;6.87;100.00;101218.47;5029586;28;20108;-61
2022/03/16 01:13:13;;;;;;;7.65;5.85;;;;;;;6.87;100.00;101215.84;5028711;28;20056;-59
2022/03/16 01:15:39;;;;;;;9.40;5.97;;;;;;;6.79;100.00;101208.66;5039839;28;20032;-58
2022/03/16 01:18:04;;;;;;;10.63;6.28;;;;;;;6.71;100.00;101209.41;5039056;28;20394;-61
2022/03/16 01:20:30;;;;;;;6.80;5.35;;;;;;;6.63;100.00;101201.38;5035406;28;20409;-58
2022/03/16 01:22:55;;;;;;;9.32;5.18;;;;;;;6.58;100.00;101200.19;5025132;28;20037;-62
2022/03/16 01:25:22;;;;;;;6.28;3.80;;;;;;;6.49;100.00;101207.16;5039336;28;20437;-62
2022/03/16 01:27:47;;;;;;;8.85;5.57;;;;;;;6.38;100.00;101204.72;5036216;28;20444;-59
2022/03/16 01:30:15;;;;;;;8.23;5.18;;;;;;;6.26;100.00;101212.81;5025244;28;20030;-59
2022/03/16 01:32:41;;;;;;;10.88;5.50;;;;;;;6.17;100.00;101203.16;5029664;28;20486;-60
2022/03/16 01:35:08;;;;;;;8.05;4.90;;;;;;;6.11;100.00;101199.28;5035678;28;20045;-58
2022/03/16 01:37:34;;;;;;;10.18;5.00;;;;;;;6.03;100.00;101195.72;5036424;28;20094;-60
2022/03/16 01:39:59;;;;;;;12.57;5.60;;;;;;;5.95;100.00;101198.22;5029118;28;20088;-55
2022/03/16 01:42:25;;;;;;;5.40;4.40;;;;;;;5.86;100.00;101194.59;5028348;28;20395;-60
2022/03/16 01:44:54;;;;;;;9.63;5.82;;;;;;;5.82;100.00;101188.00;5034807;28;20120;-60
2022/03/16 01:47:21;;;;;;;9.27;5.28;;;;;;;5.74;100.00;101186.06;5035474;28;20048;-59
2022/03/16 01:49:48;;;;;;;9.10;5.50;;;;;;;5.66;100.00;101178.88;5038214;28;20026;-58
2022/03/16 01:52:19;;;;;;;8.63;5.55;;;;;;;5.62;100.00;101185.38;5032323;28;20026;-62
2022/03/16 01:54:45;;;;;;;13.52;4.78;;;;;;;5.60;100.00;101183.88;5038033;28;20157;-60
2022/03/16 01:57:12;;;;;;;9.45;5.07;;;;;;;5.57;100.00;101182.34;5035549;28;20414;-56
2022/03/16 01:59:38;;;;;;;8.73;5.47;;;;;;;5.58;100.00;101172.69;5030932;28;20514;-60
2022/03/16 02:02:05;;;;;;;11.27;5.65;;;;;;;5.61;100.00;101180.28;5033951;28;20207;-59
2022/03/16 02:04:30;;;;;;;8.05;5.68;;;;;;;5.68;100.00;101176.94;5040199;28;20447;-55
2022/03/16 02:06:57;;;;;;;7.80;5.57;;;;;;;5.71;100.00;101173.19;5044427;28;20082;-56
2022/03/16 02:09:22;;;;;;;7.32;4.38;;;;;;;5.74;100.00;101166.81;5033770;28;20033;-57
2022/03/16 02:11:48;;;;;;;7.43;4.97;;;;;;;5.79;100.00;101162.78;5033960;28;20513;-58
2022/03/16 02:14:13;;;;;;;13.20;6.65;;;;;;;5.88;100.00;101155.81;5043315;28;20080;-57
2022/03/16 02:16:38;;;;;;;6.68;5.20;;;;;;;5.96;100.00;101155.97;5036198;28;20072;-54
2022/03/16 02:19:04;;;;;;;13.20;5.47;;;;;;;6.02;100.00;101151.94;5031818;28;20148;-58
2022/03/16 02:21:31;;;;;;;9.23;6.45;;;;;;;6.09;100.00;101147.72;5035250;28;20029;-60
2022/03/16 02:23:56;;;;;;;7.60;5.32;;;;;;;6.15;100.00;101146.34;5030172;28;20457;-56
2022/03/16 02:26:26;;;;;;;10.95;6.35;;;;;;;6.18;100.00;101146.88;5031224;28;20033;-59
2022/03/16 02:28:51;;;;;;;10.52;5.43;;;;;;;6.28;100.00;101145.03;5030389;28;20382;-58
2022/03/16 02:31:17;;;;;;;9.07;5.88;;;;;;;6.29;100.00;101138.75;5033239;28;20025;-59
2022/03/16 02:33:43;;;;;;;9.07;5.45;;;;;;;6.27;100.00;101145.16;5035573;28;20541;-59
2022/03/16 02:36:09;;;;;;;13.82;7.03;;;;;;;6.27;100.00;101140.75;5036012;28;20049;-60
2022/03/16 02:38:34;;;;;;;10.27;6.55;;;;;;;6.32;100.00;101140.28;5030214;28;20049;-56
2022/03/16 02:41:00;;;;;;;9.73;6.05;;;;;;;6.40;100.00;101129.00;5041060;28;20037;-62
2022/03/16 02:43:27;;;;;;;11.15;7.47;;;;;;;6.56;100.00;101129.19;5030141;28;20041;-59
2022/03/16 02:45:53;;;;;;;9.20;7.10;;;;;;;6.70;100.00;101131.31;5036280;28;20037;-60
2022/03/16 02:48:18;;;;;;;11.35;6.32;;;;;;;6.83;100.00;101132.75;5029371;28;20203;-61
2022/03/16 02:50:43;;;;;;;13.93;7.40;;;;;;;6.90;100.00;101128.53;5030676;28;20037;-62
2022/03/16 02:53:09;;;;;;;12.85;8.30;;;;;;;6.98;100.00;101128.59;5036210;28;20219;-59
2022/03/16 02:55:34;;;;;;;11.07;7.40;;;;;;;7.03;100.00;101130.78;5035996;28;20032;-59
2022/03/16 02:58:00;;;;;;;15.25;9.65;;;;;;;7.09;100.00;101123.09;5032234;28;20049;-60
2022/03/16 03:00:26;;;;;;;13.90;8.57;;;;;;;7.12;100.00;101120.13;5030972;28;20483;-60
2022/03/16 03:02:53;;;;;;;10.30;7.03;;;;;;;7.18;100.00;101114.25;5034363;28;20044;-58
2022/03/16 03:05:19;;;;;;;13.35;7.72;;;;;;;7.19;100.00;101121.19;5039252;28;20091;-62
2022/03/16 03:07:44;;;;;;;11.82;7.13;;;;;;;7.21;100.00;101119.22;5029279;28;20025;-60
2022/03/16 03:10:09;;;;;;;12.82;8.23;;;;;;;7.27;100.00;101122.22;5030018;28;20037;-60
2022/03/16 03:12:35;;;;;;;12.10;6.68;;;;;;;7.32;100.00;101123.44;5028314;28;20119;-60
2022/03/16 03:15:05;;;;;;;15.98;7.85;;;;;;;7.33;100.00;101122.47;5031189;28;20475;-61
2022/03/16 03:17:31;;;;;;;12.85;8.23;;;;;;;7.35;100.00;101125.75;5024655;28;20648;-59
2022/03/16 03:19:57;;;;;;;19.45;7.93;;;;;;;7.37;100.00;101123.78;5028507;28;20087;-60
2022/03/16 03:22:26;;;;;;;14.50;9.00;;;;;;;7.41;100.00;101129.59;5032419;28;20563;-59
2022/03/16 03:24:52;;;;;;;10.25;7.13;;;;;;;7.43;100.00;101130.25;5035798;28;20037;-56
2022/03/16 03:27:17;;;;;;;12.18;6.47;;;;;;;7.45;100.00;101125.66;5027948;28;20442;-57
2022/03/16 03:29:42;;;;;;;11.02;7.20;;;;;;;7.47;100.00;101125.50;5028357;28;20210;-58
2022/03/16 03:32:08;;;;;;;12.15;8.27;;;;;;;7.48;100.00;101130.63;5043210;28;20032;-59
2022/03/16 03:34:33;;;;;;;12.63;8.57;;;;;;;7.52;100.00;101125.88;5038922;28;20029;-59
2022/03/16 03:36:58;;;;;;;12.40;7.18;;;;;;;7.50;100.00;101128.66;5039268;28;20085;-62
2022/03/16 03:39:24;;;;;;;9.63;7.72;;;;;;;7.53;100.00;101117.78;5032114;28;20501;-56
2022/03/16 03:41:49;;;;;;;10.65;6.50;;;;;;;7.56;100.00;101130.69;5031930;28;20025;-61
2022/03/16 03:44:14;;;;;;;12.85;8.18;;;;;;;7.57;100.00;101128.88;5032934;28;20487;-61
2022/03/16 03:46:40;;;;;;;10.93;7.22;;;;;;;7.61;100.00;101125.75;5027598;28;20471;-59
2022/03/16 03:49:05;;;;;;;14.85;8.70;;;;;;;7.63;100.00;101112.41;5037308;28;20036;-57
2022/03/16 03:51:30;;;;;;;9.52;6.70;;;;;;;7.63;100.00;101118.50;5038461;28;20040;-60
2022/03/16 03:53:56;;;;;;;11.38;8.32;;;;;;;7.63;100.00;101121.16;5031895;28;20479;-62
2022/03/16 03:56:21;;;;;;;13.25;7.82;;;;;;;7.65;100.00;101116.56;5034698;28;20035;-60
2022/03/16 03:58:47;;;;;;;15.32;7.88;;;;;;;7.67;100.00;101123.47;5037424;28;20061;-60
2022/03/16 04:01:15;;;;;;;12.38;7.85;;;;;;;7.68;100.00;101120.69;5030715;28;20032;-57
2022/03/16 04:03:41;;;;;;;9.07;6.65;;;;;;;7.68;100.00;101123.34;5038185;28;20041;-61
2022/03/16 04:06:07;;;;;;;14.60;8.90;;;;;;;7.70;100.00;101129.28;5034769;28;20025;-59
2022/03/16 04:08:33;;;;;;;13.70;8.15;;;;;;;7.70;100.00;101118.72;5040091;28;20501;-60
2022/03/16 04:10:58;;;;;;;18.23;9.82;;;;;;;7.71;100.00;101122.19;5045114;28;20029;-61
2022/03/16 04:13:23;;;;;;;13.45;8.60;;;;;;;7.70;100.00;101117.91;5034074;28;20040;-58
2022/03/16 04:15:49;;;;;;;12.60;8.15;;;;;;;7.72;100.00;101122.03;5032826;28;20025;-60
2022/03/16 04:18:14;;;;;;;14.90;9.25;;;;;;;7.73;100.00;101112.31;5040363;28;20087;-60
2022/03/16 04:20:39;;;;;;;15.82;9.45;;;;;;;7.72;100.00;101116.75;5033173;28;20040;-60
2022/03/16 04:23:05;;;;;;;11.77;7.90;;;;;;;7.72;100.00;101115.91;5035293;28;20109;-59
2022/03/16 04:25:30;;;;;;;13.40;8.35;;;;;;;7.73;100.00;101110.50;5030016;28;20035;-61
2022/03/16 04:27:55;;;;;;;15.57;8.75;;;;;;;7.74;100.00;101108.66;5040800;28;20029;-61
2022/03/16 04:30:21;;;;;;;12.30;8.32;;;;;;;7.76;100.00;101104.88;5030751;28;20548;-58
2022/03/16 04:32:51;;;;;;;10.50;8.23;;;;;;;7.77;100.00;101097.78;5035424;28;20530;-59
2022/03/16 04:35:17;;;;;;;14.10;9.00;;;;;;;7.76;100.00;101090.88;5039431;28;20044;-57
2022/03/16 04:37:42;;;;;;;13.32;8.73;;;;;;;7.77;100.00;101103.06;5027551;28;20402;-61
2022/03/16 04:40:08;;;;;;;14.50;8.85;;;;;;;7.78;100.00;101104.75;5028446;28;20121;-61
2022/03/16 04:42:33;;;;;;;17.35;9.13;;;;;;;7.78;100.00;101104.75;5033642;28;20025;-58
2022/03/16 04:44:59;;;;;;;15.70;9.50;;;;;;;7.80;100.00;101108.88;5030715;28;20447;-61
2022/03/16 04:47:24;;;;;;;16.17;9.38;;;;;;;7.81;100.00;101109.72;5030748;28;20429;-61
2022/03/16 04:49:49;;;;;;;15.30;9.52;;;;;;;7.80;100.00;101102.78;5030678;28;20525;-60
2022/03/16 04:52:15;;;;;;;18.83;9.60;;;;;;;7.80;100.00;101108.88;5033323;28;20647;-61
2022/03/16 04:54:40;;;;;;;12.05;7.65;;;;;;;7.81;100.00;101099.97;5041089;28;20549;-61
2022/03/16 04:57:05;;;;;;;13.45;8.55;;;;;;;7.83;100.00;101107.75;5034871;28;20553;-57
2022/03/16 04:59:31;;;;;;;12.13;7.97;;;;;;;7.84;100.00;101109.38;5034810;28;20078;-59
2022/03/16 05:01:56;;;;;;;14.85;9.52;;;;;;;7.86;100.00;101116.16;5029633;28;20386;-57
2022/03/16 05:04:21;;;;;;;16.33;10.95;;;;;;;7.85;100.00;101106.59;5035961;28;20036;-54
2022/03/16 05:06:47;;;;;;;13.02;9.93;;;;;;;7.86;100.00;101105.59;5033006;28;20366;-59
2022/03/16 05:09:12;;;;;;;19.23;9.82;;;;;;;7.88;100.00;101107.28;5026672;28;20044;-59
2022/03/16 05:11:40;;;;;;;12.68;7.90;;;;;;;7.86;100.00;101113.53;5027624;28;20088;-62
2022/03/16 05:14:06;;;;;;;13.52;9.63;;;;;;;7.88;100.00;101108.09;5037794;28;20538;-59
2022/03/16 05:16:31;;;;;;;16.25;10.10;;;;;;;7.90;100.00;101111.41;5030048;28;20199;-56
2022/03/16 05:18:56;;;;;;;14.68;9.57;;;;;;;7.89;100.00;101120.31;5024878;28;20033;-59
2022/03/16 05:21:22;;;;;;;15.25;8.73;;;;;;;7.87;100.00;101101.16;5038426;28;20040;-58
2022/03/16 05:23:47;;;;;;;13.60;8.52;;;;;;;7.88;100.00;101105.47;5039786;28;20072;-60
2022/03/16 05:26:12;;;;;;;17.23;9.15;;;;;;;7.86;100.00;101105.59;5033754;28;20144;-62
2022/03/16 05:28:38;;;;;;;16.70;9.48;;;;;;;7.84;100.00;101089.09;5034390;28;20082;-57
2022/03/16 05:31:03;;;;;;;14.75;9.82;;;;;;;7.86;100.00;101091.56;5037870;28;20033;-59
2022/03/16 05:33:28;;;;;;;16.13;10.25;;;;;;;7.87;100.00;101087.94;5037184;28;20041;-62
2022/03/16 05:35:54;;;;;;;16.10;9.57;;;;;;;7.88;100.00;101086.16;5033967;28;20040;-59
2022/03/16 05:38:20;;;;;;;14.18;9.35;;;;;;;7.88;100.00;101081.69;5027587;28;20029;-61
2022/03/16 05:40:45;;;;;;;20.35;12.32;;;;;;;7.87;100.00;101077.38;5036166;28;20427;-61
2022/03/16 05:43:13;;;;;;;14.63;9.07;;;;;;;7.87;100.00;101069.47;5037572;28;20148;-62
2022/03/16 05:45:39;;;;;;;17.45;10.00;;;;;;;7.89;100.00;101062.22;5043774;28;20509;-59
2022/03/16 05:48:04;;;;;;;19.13;11.65;;;;;;;7.87;100.00;101056.25;5025440;28;20041;-61
2022/03/16 05:50:30;;;;;;;13.80;9.55;;;;;;;7.88;100.00;101052.66;5027657;28;20462;-59
2022/03/16 05:52:57;;;;;;;17.35;11.10;;;;;;;7.89;100.00;101058.75;5034445;28;20033;-61
2022/03/16 05:55:22;;;;;;;21.67;9.70;;;;;;;7.89;100.00;101058.75;5035999;28;20074;-59
2022/03/16 05:57:49;;;;;;;18.77;9.32;;;;;;;7.90;100.00;101066.53;5038206;28;20029;-63
2022/03/16 06:00:16;;;;;;;23.10;11.93;;;;;;;7.92;100.00;101069.00;5025012;28;20045;-61
2022/03/16 06:02:45;;;;;;;15.85;9.88;;;;;;;7.94;100.00;101070.47;5027986;28;20859;-59
2022/03/16 06:05:12;;;;;;;13.48;9.00;;;;;;;7.96;100.00;101076.44;5034248;28;20041;-60
2022/03/16 06:07:38;;;;;;;15.10;10.32;;;;;;;7.97;100.00;101066.69;5029032;28;20074;-61
2022/03/16 06:10:08;;;;;;;17.00;10.65;;;;;;;7.99;100.00;101060.28;5027313;28;20029;-59
2022/03/16 06:12:33;;;;;;;18.52;10.35;;;;;;;8.01;100.00;101065.41;5033171;28;20091;-62
2022/03/16 06:14:59;;;;;;;11.73;8.77;;;;;;;8.01;100.00;101060.13;5032013;28;20060;-63
2022/03/16 06:17:24;;;;;;;18.30;11.13;;;;;;;8.01;100.00;101065.41;5040441;28;20059;-57
2022/03/16 06:19:49;;;;;;;18.38;11.23;;;;;;;8.01;100.00;101054.84;5041983;28;20053;-60
2022/03/16 06:22:15;;;;;;;18.52;10.80;;;;;;;8.01;100.00;101058.31;5030297;28;20446;-62
2022/03/16 06:24:40;;;;;;;20.92;10.85;;;;;;;8.02;100.00;101057.31;5030874;28;20034;-62
2022/03/16 06:27:06;;;;;;;15.90;11.27;;;;;;;8.03;100.00;101060.78;5032762;28;20020;-60
2022/03/16 06:29:31;;;;;;;16.17;9.90;;;;;;;8.03;100.00;101060.78;5031150;28;20053;-62
2022/03/16 06:31:56;;;;;;;16.77;11.13;;;;;;;8.04;100.00;101065.06;5033240;28;20514;-57
2022/03/16 06:34:22;;;;;;;18.40;11.40;;;;;;;8.05;100.00;101067.56;5032261;28;20423;-56
2022/03/16 06:36:47;;;;;;;13.15;8.32;;;;;;;8.06;100.00;101069.22;5027929;28;20025;-58
2022/03/16 06:39:13;;;;;;;16.42;11.57;;;;;;;8.07;100.00;101078.78;5037706;28;20161;-62
2022/03/16 06:41:38;;;;;;;16.35;11.25;;;;;;;8.07;100.00;101084.06;5029736;28;20041;-61
2022/03/16 06:44:04;;;;;;;16.90;10.95;;;;;;;8.07;100.00;101086.69;5047039;28;20086;-62
2022/03/16 06:46:30;;;;;;;16.48;11.13;;;;;;;8.08;100.00;101088.38;5037704;28;20036;-60
2022/03/16 06:48:55;;;;;;;14.10;9.35;;;;;;;8.07;100.00;101084.06;5033265;28;20401;-60
2022/03/16 06:51:20;;;;;;;16.80;9.82;;;;;;;8.08;100.00;101087.56;5037195;28;20029;-61
2022/03/16 06:53:45;;;;;;;16.90;10.55;;;;;;;8.07;100.00;101091.97;5040952;28;20024;-62
2022/03/16 06:56:11;;;;;;;15.98;10.35;;;;;;;8.08;100.00;101096.31;5045169;28;20206;-59
2022/03/16 06:58:36;;;;;;;13.90;9.63;;;;;;;8.09;100.00;101092.66;5035069;28;20040;-60
2022/03/16 07:01:02;;;;;;;17.92;11.38;;;;;;;8.12;100.00;101090.69;5039551;28;20482;-59
2022/03/16 07:03:27;;;;;;;14.50;10.05;;;;;;;8.15;100.00;101093.00;5038534;28;20044;-61
2022/03/16 07:05:53;;;;;;;16.80;10.95;;;;;;;8.18;100.00;101100.59;5031867;28;20113;-57
2022/03/16 07:08:18;;;;;;;17.83;10.02;;;;;;;8.19;100.00;101094.34;5036290;28;20386;-61
2022/03/16 07:10:44;;;;;;;15.77;10.48;;;;;;;8.20;100.00;101096.81;5033134;28;20119;-61
2022/03/16 07:13:11;;;;;;;15.77;10.05;;;;;;;8.22;100.00;101096.66;5038279;28;20049;-58
2022/03/16 07:15:38;;;;;;;15.55;9.95;;;;;;;8.24;100.00;101079.66;5029409;28;20295;-57
2022/03/16 07:18:04;;;;;;;16.95;10.15;;;;;;;8.30;100.00;101078.19;5029062;28;20021;-60
2022/03/16 07:20:30;;;;;;;18.63;11.65;;;;;;;8.33;100.00;101077.88;5025562;28;20422;-60
2022/03/16 07:23:13;;;;;;;17.63;10.10;;;;;;;8.38;100.00;101078.22;5029565;28;20094;-59
2022/03/16 07:25:43;;;;;;;13.77;9.25;;;;;;;8.42;100.00;101076.94;5026451;28;20029;-62
2022/03/16 07:28:09;;;;;;;14.23;10.23;;;;;;;8.45;100.00;101079.25;5025981;28;20450;-59
2022/03/16 07:30:36;;;;;;;14.68;8.98;;;;;;;8.47;100.00;101077.28;5024686;28;20441;-61
2022/03/16 07:33:03;;;;;;;19.42;11.90;;;;;;;8.48;100.00;101086.84;5023164;28;20287;-59
2022/03/16 07:35:28;;;;;;;12.40;7.97;;;;;;;8.50;100.00;101087.53;5022354;28;20030;-55
2022/03/16 07:37:58;;;;;;;15.20;9.93;;;;;;;8.50;100.00;101092.00;5027565;28;20040;-57
2022/03/16 07:40:24;;;;;;;17.15;10.77;;;;;;;8.48;100.00;101092.13;5033251;28;20032;-60
2022/03/16 07:42:51;;;;;;;17.52;10.55;;;;;;;8.48;100.00;101097.41;5027234;28;20266;-60
2022/03/16 07:45:18;;;;;;;16.63;8.95;;;;;;;8.49;100.00;101092.97;5029166;28;20052;-60
2022/03/16 07:47:47;;;;;;;13.15;9.02;;;;;;;8.50;100.00;101098.09;5026148;28;20104;-61
2022/03/16 07:50:13;;;;;;;14.68;9.43;;;;;;;8.48;100.00;101100.06;5030145;28;20053;-62
2022/03/16 07:52:39;;;;;;;15.50;9.25;;;;;;;8.48;100.00;101108.00;5029070;28;20028;-59
2022/03/16 07:55:06;;;;;;;18.65;9.90;;;;;;;8.49;100.00;101108.81;5027912;28;20037;-61
2022/03/16 07:57:32;;;;;;;11.52;9.35;;;;;;;8.47;100.00;101116.94;5030916;28;20105;-62
2022/03/16 07:59:57;;;;;;;15.25;9.38;;;;;;;8.45;100.00;101116.25;5029034;28;20129;-56
2022/03/16 08:02:22;;;;;;;12.85;6.22;;;;;;;8.45;100.00;101126.81;5030053;28;20384;-59
2022/03/16 08:04:48;;;;;;;14.25;8.75;;;;;;;8.46;100.00;101119.72;5030886;28;20401;-62
2022/03/16 08:07:13;;;;;;;12.13;7.57;;;;;;;8.46;100.00;101117.06;5038152;28;20433;-59
2022/03/16 08:09:39;;;;;;;13.93;8.18;;;;;;;8.45;100.00;101115.44;5030742;28;20044;-60
2022/03/16 08:12:04;;;;;;;11.77;8.10;;;;;;;8.45;100.00;101113.59;5025016;28;20179;-60
2022/03/16 08:14:30;;;;;;;16.48;9.82;;;;;;;8.45;100.00;101120.72;5029855;28;20501;-61
2022/03/16 08:16:55;;;;;;;13.25;9.10;;;;;;;8.43;100.00;101117.41;5031387;28;20457;-58
2022/03/16 08:19:21;;;;;;;21.20;8.57;;;;;;;8.41;100.00;101120.19;5031818;28;20032;-58
2022/03/16 08:21:47;;;;;;;12.77;8.60;;;;;;;8.39;100.00;101108.97;5032947;28;20538;-59
2022/03/16 08:24:13;;;;;;;13.70;8.55;;;;;;;8.39;100.00;101114.25;5023605;28;20037;-59
2022/03/16 08:26:39;;;;;;;16.17;9.18;;;;;;;8.39;100.00;101106.34;5032230;28;20035;-59
2022/03/16 08:29:04;;;;;;;14.48;7.63;;;;;;;8.41;100.00;101106.97;5035435;28;20033;-56
2022/03/16 08:31:29;;;;;;;14.05;8.38;;;;;;;8.45;100.00;101112.78;5035773;28;20025;-58
2022/03/16 08:33:56;;;;;;;19.50;12.38;;;;;;;8.48;100.00;101093.97;5030525;28;20033;-56
2022/03/16 08:36:21;;;;;;;25.35;12.73;;;;;;;8.54;100.00;101097.75;5029861;28;20067;-58
2022/03/16 08:38:47;;;;;;;17.77;11.18;;;;;;;8.57;100.00;101110.66;5036378;28;20064;-59
2022/03/16 08:41:12;;;;;;;19.67;10.95;;;;;;;8.58;100.00;101109.69;5040728;28;20477;-60
2022/03/16 08:43:38;;;;;;;16.27;9.98;;;;;;;8.60;100.00;101110.34;5035318;28;20565;-60
2022/03/16 08:46:04;;;;;;;16.55;9.55;;;;;;;8.63;100.00;101104.72;5036440;28;20029;-61
2022/03/16 08:48:30;;;;;;;16.42;11.10;;;;;;;8.67;100.00;101106.03;5036583;28;20025;-63
2022/03/16 08:50:55;;;;;;;15.70;9.35;;;;;;;8.71;100.00;101107.38;5029049;28;20033;-60
2022/03/16 08:53:20;;;;;;;14.13;9.02;;;;;;;8.73;100.00;101116.81;5038946;28;20524;-62
2022/03/16 08:55:46;;;;;;;18.02;10.40;;;;;;;8.72;100.00;101114.31;5036903;28;20148;-62
2022/03/16 08:58:14;;;;;;;19.90;11.70;;;;;;;8.69;100.00;101115.47;5042472;28;20394;-61
2022/03/16 09:00:41;;;;;;;16.63;10.52;;;;;;;8.67;100.00;101117.47;5030441;28;20037;-62
2022/03/16 09:03:08;;;;;;;13.65;8.70;;;;;;;8.68;100.00;101108.53;5033728;28;20117;-58
2022/03/16 09:05:33;;;;;;;17.02;11.02;;;;;;;8.70;100.00;101117.13;5041039;28;20097;-62
2022/03/16 09:07:59;;;;;;;12.93;8.52;;;;;;;8.69;100.00;101115.47;5030331;28;20479;-63
2022/03/16 09:10:24;;;;;;;17.70;8.07;;;;;;;8.66;100.00;101120.25;5027335;28;20363;-62
2022/03/16 09:12:50;;;;;;;17.25;9.30;;;;;;;8.61;100.00;101128.66;5031352;28;20031;-62
2022/03/16 09:15:15;;;;;;;16.77;9.45;;;;;;;8.59;100.00;101114.78;5038419;28;20526;-64
2022/03/16 09:17:40;;;;;;;12.02;8.70;;;;;;;8.59;100.00;101116.59;5036788;28;20025;-62
2022/03/16 09:20:06;;;;;;;13.27;9.32;;;;;;;8.60;100.00;101118.28;5028784;28;20034;-62
2022/03/16 09:22:32;;;;;;;13.75;10.13;;;;;;;8.64;100.00;101109.84;5027610;28;20092;-63
2022/03/16 09:24:58;;;;;;;12.35;9.25;;;;;;;8.70;100.00;101111.03;5039314;28;20033;-63
2022/03/16 09:27:24;;;;;;;18.13;10.75;;;;;;;8.73;100.00;101121.28;5037407;28;20076;-62
2022/03/16 09:29:50;;;;;;;17.70;10.38;;;;;;;8.67;100.00;101114.81;5030147;28;20108;-61
2022/03/16 09:32:16;;;;;;;14.63;8.20;;;;;;;8.59;100.00;101114.78;5038093;28;20533;-64
2022/03/16 09:34:42;;;;;;;13.02;8.82;;;;;;;8.56;100.00;101127.50;5033164;28;20111;-64
2022/03/16 09:37:09;;;;;;;13.82;9.10;;;;;;;8.52;100.00;101129.66;5035673;28;20104;-64
2022/03/16 09:39:35;;;;;;;15.30;10.13;;;;;;;8.49;100.00;101103.53;5028079;28;20021;-64
2022/03/16 09:42:02;;;;;;;13.43;9.82;;;;;;;8.54;100.00;101108.34;5038777;28;20043;-63
2022/03/16 09:44:30;;;;;;;19.00;9.65;;;;;;;8.60;100.00;101110.34;5038358;28;20158;-63
2022/03/16 09:46:57;;;;;;;13.93;9.55;;;;;;;8.64;100.00;101114.31;5040295;28;20528;-64
2022/03/16 09:49:23;;;;;;;16.15;11.10;;;;;;;8.69;100.00;101109.34;5026576;28;20462;-64
2022/03/16 09:51:50;;;;;;;18.45;11.27;;;;;;;8.80;100.00;101110.84;5033693;28;20114;-62
2022/03/16 09:54:15;;;;;;;14.35;9.75;;;;;;;8.90;100.00;101103.59;5036071;28;20029;-62
2022/03/16 09:56:40;;;;;;;16.55;10.57;;;;;;;9.01;100.00;101105.06;5034399;28;20039;-62
2022/03/16 09:59:06;;;;;;;16.27;10.52;;;;;;;9.09;100.00;101097.97;5038631;28;20025;-62
2022/03/16 10:01:34;;;;;;;15.38;9.43;;;;;;;9.16;100.00;101091.03;5039279;28;20033;-58
2022/03/16 10:04:00;;;;;;;22.30;11.73;;;;;;;9.20;100.00;101086.22;5038904;28;20177;-64
2022/03/16 10:06:26;;;;;;;15.13;10.05;;;;;;;9.29;100.00;101092.31;5032683;28;20589;-63
2022/03/16 10:14:19;;;;;;;20.80;11.40;;;;;;;9.32;100.00;101084.03;5028001;28;20048;-62
2022/03/16 10:19:49;;;;;;;13.82;10.10;;;;;;;9.33;100.00;101073.31;5035728;28;20571;-63
2022/03/16 10:22:30;;;;;;;14.02;9.52;;;;;;;9.33;100.00;101075.13;5033221;28;20026;-64
2022/03/16 10:25:00;;;;;;;13.05;8.27;;;;;;;9.28;100.00;101072.16;5036485;28;20071;-61
2022/03/16 10:27:26;;;;;;;16.80;10.65;;;;;;;9.26;100.00;101068.84;5039674;28;20099;-62
2022/03/16 10:29:51;;;;;;;13.45;8.05;;;;;;;9.30;100.00;101064.88;5034964;28;20030;-61
2022/03/16 10:32:21;;;;;;;20.02;8.77;;;;;;;9.48;100.00;101051.44;5036158;28;20033;-61
2022/03/16 10:34:54;;;;;;;16.92;10.43;;;;;;;9.61;100.00;101041.97;5032519;28;20037;-60
2022/03/16 10:37:24;;;;;;;16.30;10.65;;;;;;;9.65;100.00;101038.97;5034949;28;20026;-61
2022/03/16 10:39:51;;;;;;;18.27;11.10;;;;;;;9.58;100.00;101031.72;5046056;28;20538;-61
2022/03/16 10:48:23;;;;;;;10.68;7.78;;;;;;;9.53;100.00;101033.22;5031457;28;20063;-61
2022/03/16 10:50:50;;;;;;;14.43;9.48;;;;;;;9.51;100.00;101024.63;5039153;28;20478;-62
2022/03/16 10:53:18;;;;;;;13.07;8.95;;;;;;;9.53;100.00;101020.00;5036598;28;20033;-61
2022/03/16 10:55:45;;;;;;;15.00;9.82;;;;;;;9.51;100.00;101006.91;5033498;28;20499;-62
2022/03/16 10:58:12;;;;;;;13.10;9.50;;;;;;;9.56;100.00;101001.94;5030671;28;20053;-60
2022/03/16 11:00:39;;;;;;;17.33;9.55;;;;;;;9.61;100.00;101010.19;5033147;28;20636;-62
2022/03/16 11:03:07;;;;;;;14.13;9.50;;;;;;;9.59;100.00;101006.88;5030109;28;20083;-62
2022/03/16 11:05:36;;;;;;;16.40;9.73;;;;;;;9.57;100.00;100997.47;5024240;28;20037;-62
2022/03/16 11:08:06;;;;;;;16.50;10.02;;;;;;;9.65;100.00;100988.66;5032832;28;20432;-59
2022/03/16 11:10:32;;;;;;;15.33;10.63;;;;;;;9.78;100.00;100981.81;5035225;28;20041;-62
2022/03/16 11:15:43;;;;;;;14.60;9.88;;;;;;;10.14;100.00;100978.59;5037973;28;20068;-62
2022/03/16 11:18:08;;;;;;;21.38;11.43;;;;;;;10.30;100.00;100968.94;5032495;28;20558;-62
2022/03/16 11:20:34;;;;;;;14.48;9.10;;;;;;;10.45;100.00;100961.84;5030704;28;20033;-61
2022/03/16 11:26:00;;;;;;;16.55;10.65;;;;;;;10.62;100.00;100957.25;5033736;28;20035;-62
2022/03/16 11:28:40;;;;;;;17.73;11.32;;;;;;;10.52;100.00;100952.19;5036101;28;20475;-63
2022/03/16 11:31:08;;;;;;;14.35;10.15;;;;;;;10.37;100.00;100948.66;5037419;28;20045;-63